Artas, South Dakota
Current Conditions -  °F | °C
As of 8:52 AM on Friday 19 Dec 2014 (Local Time) from KMBG Reporting Station
Haze Haze  
Wind Chill: -11°   Ceiling: Unl
Heat Index: -6°   Visibility: 5mi
Dew Point: -8°   Wind: 8mph
Humidity: 88%   Direction: 150°SSE
Pressure: 29.96"   Gusts: NA
Location:  45.7737°N, 99.5895°W
Report Text: KMBG 191452Z AUTO 15007KT 5SM BR CLR M06/M08 A2996 RMK AO2 SLP173 T10611078 56002
Loading
Personal Weather Stations






























Interactive Weather Map New forecast layout! Learn more

10-Day Weather Forecast

Advertisements
Track Severe Weather on mobile